createdAt,value
2022-12-22T00:00:48.258Z,94
2022-12-22T00:01:50.267Z,94
2022-12-22T00:02:48.445Z,94
2022-12-22T00:03:48.345Z,94
2022-12-22T00:04:48.248Z,94
2022-12-22T00:05:48.279Z,94
2022-12-22T00:06:48.289Z,94
2022-12-22T00:07:48.259Z,94
2022-12-22T00:08:48.302Z,94
2022-12-22T00:09:48.276Z,95
2022-12-22T00:10:48.256Z,95
2022-12-22T00:11:48.271Z,95
2022-12-22T00:12:48.262Z,94
2022-12-22T00:13:48.295Z,94
2022-12-22T00:14:48.555Z,94
2022-12-22T00:15:48.263Z,94
2022-12-22T00:16:48.468Z,94
2022-12-22T00:17:48.283Z,94
2022-12-22T00:18:48.312Z,94
2022-12-22T00:19:48.273Z,95
2022-12-22T00:20:48.308Z,95
2022-12-22T00:21:48.270Z,95
2022-12-22T00:22:48.331Z,95
2022-12-22T00:23:48.278Z,95
2022-12-22T00:24:48.277Z,95
2022-12-22T00:25:48.258Z,95
2022-12-22T00:26:48.259Z,95
2022-12-22T00:27:48.341Z,95
2022-12-22T00:28:48.274Z,95
2022-12-22T00:29:48.335Z,95
2022-12-22T00:30:48.348Z,95
2022-12-22T00:31:48.279Z,95
2022-12-22T00:32:48.334Z,95
2022-12-22T00:33:48.589Z,95
2022-12-22T00:34:48.368Z,95
2022-12-22T00:35:48.355Z,95
2022-12-22T00:36:48.369Z,95
2022-12-22T00:37:48.584Z,95
2022-12-22T00:38:48.392Z,95
2022-12-22T00:39:48.414Z,95
2022-12-22T00:40:48.367Z,95
2022-12-22T00:41:48.427Z,95
2022-12-22T00:42:48.421Z,95
2022-12-22T00:43:48.429Z,95
2022-12-22T00:44:48.413Z,95
2022-12-22T00:45:48.507Z,95
2022-12-22T00:46:48.410Z,95
2022-12-22T00:47:48.427Z,95
2022-12-22T00:48:48.409Z,95
2022-12-22T00:49:48.625Z,96
2022-12-22T00:50:48.415Z,96
2022-12-22T00:51:48.425Z,96
2022-12-22T00:52:48.418Z,95
2022-12-22T00:53:48.375Z,95
2022-12-22T00:54:48.409Z,95
2022-12-22T00:55:48.398Z,95
2022-12-22T00:56:48.487Z,95
2022-12-22T00:57:48.425Z,95
2022-12-22T00:58:48.327Z,95
2022-12-22T00:59:48.340Z,96
2022-12-22T01:00:48.370Z,96
2022-12-22T01:01:48.484Z,96
2022-12-22T01:02:48.471Z,96
2022-12-22T01:03:48.492Z,96
2022-12-22T01:04:48.363Z,96
2022-12-22T01:05:48.391Z,96
2022-12-22T01:06:48.471Z,96
2022-12-22T01:07:48.424Z,96
2022-12-22T01:08:48.357Z,96
2022-12-22T01:09:48.401Z,96
2022-12-22T01:10:48.396Z,96
2022-12-22T01:11:48.387Z,96
2022-12-22T01:12:48.377Z,96
2022-12-22T01:13:48.407Z,96
2022-12-22T01:14:48.368Z,96
2022-12-22T01:15:48.445Z,96
2022-12-22T01:16:48.396Z,96
2022-12-22T01:17:48.462Z,96
2022-12-22T01:18:48.382Z,96
2022-12-22T01:19:48.382Z,96
2022-12-22T01:20:48.396Z,96
2022-12-22T01:21:48.401Z,96
2022-12-22T01:22:48.405Z,95
2022-12-22T01:23:48.413Z,95
2022-12-22T01:24:48.382Z,95
2022-12-22T01:25:48.399Z,95
2022-12-22T01:26:48.405Z,95
2022-12-22T01:27:48.398Z,95
2022-12-22T01:28:48.384Z,95
2022-12-22T01:29:48.466Z,95
2022-12-22T01:30:48.394Z,95
2022-12-22T01:31:48.394Z,95
2022-12-22T01:32:48.410Z,95
2022-12-22T01:33:48.397Z,95
2022-12-22T01:34:48.401Z,95
2022-12-22T01:35:48.417Z,95
2022-12-22T01:36:48.382Z,94
2022-12-22T01:37:48.471Z,94
2022-12-22T01:38:48.401Z,94
2022-12-22T01:39:48.393Z,95
2022-12-22T01:40:48.412Z,95
2022-12-22T01:41:48.395Z,95
2022-12-22T01:42:48.618Z,94
2022-12-22T01:43:48.398Z,94
2022-12-22T01:44:48.404Z,94
2022-12-22T01:45:48.519Z,94
2022-12-22T01:46:48.508Z,94
2022-12-22T01:47:48.505Z,94
2022-12-22T01:48:48.375Z,94
2022-12-22T01:49:48.448Z,93
2022-12-22T01:50:48.625Z,93
2022-12-22T01:51:48.492Z,93
2022-12-22T01:52:48.452Z,94
2022-12-22T01:53:48.560Z,94
2022-12-22T01:54:48.422Z,94
2022-12-22T01:55:48.520Z,94
2022-12-22T01:56:48.436Z,94
2022-12-22T01:57:48.520Z,94
2022-12-22T01:58:48.490Z,94
2022-12-22T01:59:48.574Z,93
2022-12-22T02:00:48.429Z,93
2022-12-22T02:01:48.499Z,93
2022-12-22T02:02:48.529Z,92
2022-12-22T02:03:48.489Z,92
2022-12-22T02:04:48.440Z,92
2022-12-22T02:05:48.448Z,92
2022-12-22T02:06:48.431Z,92
2022-12-22T02:07:48.505Z,92
2022-12-22T02:08:48.472Z,92
2022-12-22T02:09:48.483Z,90
2022-12-22T02:10:48.456Z,90
2022-12-22T02:11:48.454Z,90
2022-12-22T02:12:48.493Z,91
2022-12-22T02:13:48.505Z,91
2022-12-22T02:14:48.456Z,91
2022-12-22T02:15:48.556Z,91
2022-12-22T02:16:48.471Z,91
2022-12-22T02:17:48.524Z,91
2022-12-22T02:18:48.445Z,91
2022-12-22T02:19:48.512Z,91
2022-12-22T02:20:48.467Z,91
2022-12-22T02:21:48.461Z,91
2022-12-22T02:22:48.477Z,90
2022-12-22T02:23:48.459Z,90
2022-12-22T02:24:48.511Z,90
2022-12-22T02:25:48.531Z,90
2022-12-22T02:26:48.473Z,91
2022-12-22T02:27:48.519Z,91
2022-12-22T02:28:48.451Z,91
2022-12-22T02:29:48.528Z,91
2022-12-22T02:30:48.500Z,91
2022-12-22T02:31:48.557Z,91
2022-12-22T02:32:48.589Z,91
2022-12-22T02:33:48.458Z,91
2022-12-22T02:34:48.474Z,91
2022-12-22T02:35:48.515Z,91
2022-12-22T02:36:48.458Z,90
2022-12-22T02:37:48.537Z,90
2022-12-22T02:38:48.484Z,90
2022-12-22T02:39:48.531Z,90
2022-12-22T02:40:48.478Z,90
2022-12-22T02:41:48.716Z,90
2022-12-22T02:42:48.615Z,90
2022-12-22T02:43:48.547Z,91
2022-12-22T02:44:48.592Z,91
2022-12-22T02:45:48.595Z,91
2022-12-22T02:46:48.642Z,91
2022-12-22T02:47:48.585Z,91
2022-12-22T02:48:48.596Z,91
2022-12-22T02:49:48.656Z,91
2022-12-22T02:50:48.589Z,91
2022-12-22T02:51:48.590Z,91
2022-12-22T02:52:48.592Z,91
2022-12-22T02:53:48.599Z,92
2022-12-22T02:54:48.612Z,92
2022-12-22T02:55:48.540Z,92
2022-12-22T02:56:48.594Z,91
2022-12-22T02:57:48.592Z,91
2022-12-22T02:58:48.587Z,91
2022-12-22T02:59:48.586Z,91
2022-12-22T03:00:48.656Z,91
2022-12-22T03:01:48.876Z,91
2022-12-22T03:02:48.772Z,91
2022-12-22T03:03:48.690Z,91
2022-12-22T03:04:48.698Z,91
2022-12-22T03:05:48.602Z,91
2022-12-22T03:06:48.628Z,91
2022-12-22T03:07:48.660Z,91
2022-12-22T03:08:48.645Z,91
2022-12-22T03:09:48.658Z,91
2022-12-22T03:10:48.696Z,91
2022-12-22T03:11:48.624Z,91
2022-12-22T03:12:48.707Z,91
2022-12-22T03:13:48.652Z,91
2022-12-22T03:14:48.659Z,91
2022-12-22T03:15:48.735Z,91
2022-12-22T03:16:48.684Z,91
2022-12-22T03:17:48.725Z,91
2022-12-22T03:18:48.689Z,91
2022-12-22T03:19:48.709Z,91
2022-12-22T03:20:48.679Z,91
2022-12-22T03:21:48.675Z,91
2022-12-22T03:22:48.677Z,91
2022-12-22T03:23:48.667Z,92
2022-12-22T03:24:48.746Z,92
2022-12-22T03:25:48.740Z,92
2022-12-22T03:26:48.637Z,92
2022-12-22T03:27:48.745Z,92
2022-12-22T03:28:48.708Z,92
2022-12-22T03:29:48.706Z,92
2022-12-22T03:30:48.779Z,92
2022-12-22T03:31:48.739Z,92
2022-12-22T03:32:48.999Z,92
2022-12-22T03:33:48.692Z,92
2022-12-22T03:34:48.722Z,92
2022-12-22T03:35:48.703Z,92
2022-12-22T03:36:48.675Z,92
2022-12-22T03:37:48.731Z,92
2022-12-22T03:38:48.890Z,92
2022-12-22T03:39:48.756Z,91
2022-12-22T03:40:48.733Z,91
2022-12-22T03:41:48.750Z,91
2022-12-22T03:42:48.760Z,91
2022-12-22T03:43:48.788Z,92
2022-12-22T03:44:48.854Z,92
2022-12-22T03:45:48.977Z,92
2022-12-22T03:46:48.946Z,91
2022-12-22T03:47:48.908Z,91
2022-12-22T03:48:48.885Z,91
2022-12-22T03:49:48.884Z,91
2022-12-22T03:50:48.879Z,92
2022-12-22T03:51:49.339Z,92
2022-12-22T03:52:48.910Z,92
2022-12-22T03:53:48.990Z,92
2022-12-22T03:54:48.938Z,92
2022-12-22T03:55:48.985Z,92
2022-12-22T03:56:48.948Z,92
2022-12-22T03:57:49.014Z,92
2022-12-22T03:58:48.972Z,92
2022-12-22T03:59:48.966Z,92
2022-12-22T04:00:48.995Z,91
2022-12-22T04:01:49.445Z,91
2022-12-22T04:02:49.056Z,91
2022-12-22T04:03:48.983Z,90
2022-12-22T04:04:48.941Z,90
2022-12-22T04:05:48.944Z,90
2022-12-22T04:06:48.991Z,90
2022-12-22T04:07:48.990Z,90
2022-12-22T04:08:48.970Z,90
2022-12-22T04:09:48.950Z,90
2022-12-22T04:10:48.971Z,90
2022-12-22T04:11:48.958Z,90
2022-12-22T04:12:48.952Z,90
2022-12-22T04:13:48.989Z,90
2022-12-22T04:14:48.953Z,90
2022-12-22T04:15:49.035Z,90
2022-12-22T04:16:49.044Z,90
2022-12-22T04:17:49.012Z,90
2022-12-22T04:18:48.937Z,90
2022-12-22T04:19:48.975Z,90
2022-12-22T04:20:48.969Z,89
2022-12-22T04:21:48.977Z,89
2022-12-22T04:22:48.973Z,89
2022-12-22T04:23:48.980Z,90
2022-12-22T04:24:49.020Z,90
2022-12-22T04:25:49.016Z,90
2022-12-22T04:26:48.972Z,90
2022-12-22T04:27:48.984Z,90
2022-12-22T04:28:49.028Z,90
2022-12-22T04:29:48.987Z,90
2022-12-22T04:30:48.972Z,90
2022-12-22T04:31:49.071Z,90
2022-12-22T04:32:48.971Z,90
2022-12-22T04:33:49.007Z,91
2022-12-22T04:34:48.982Z,91
2022-12-22T04:35:48.981Z,91
2022-12-22T04:36:49.107Z,90
2022-12-22T04:37:48.988Z,90
2022-12-22T04:38:48.993Z,90
2022-12-22T04:39:48.982Z,90
2022-12-22T04:40:48.980Z,91
2022-12-22T04:41:48.977Z,91
2022-12-22T04:42:48.993Z,91
2022-12-22T04:43:49.005Z,90
2022-12-22T04:44:48.951Z,90
2022-12-22T04:45:49.032Z,90
2022-12-22T04:46:48.961Z,90
2022-12-22T04:47:48.977Z,90
2022-12-22T04:48:50.976Z,90
2022-12-22T04:49:48.989Z,90
2022-12-22T04:50:48.964Z,90
2022-12-22T04:51:48.976Z,90
2022-12-22T04:52:48.990Z,90
2022-12-22T04:53:48.993Z,90
2022-12-22T04:54:49.054Z,90
2022-12-22T04:55:48.997Z,90
2022-12-22T04:56:49.164Z,91
2022-12-22T04:57:49.442Z,91
2022-12-22T04:58:48.979Z,91
2022-12-22T04:59:48.986Z,91
2022-12-22T05:00:49.054Z,91
2022-12-22T05:01:49.173Z,91
2022-12-22T05:02:49.110Z,91
2022-12-22T05:03:49.119Z,91
2022-12-22T05:04:48.994Z,91
2022-12-22T05:05:49.008Z,91
2022-12-22T05:06:48.997Z,91
2022-12-22T05:07:49.269Z,91
2022-12-22T05:08:49.050Z,91
2022-12-22T05:09:49.073Z,91
2022-12-22T05:10:49.061Z,90
2022-12-22T05:11:49.092Z,90
2022-12-22T05:12:49.035Z,90
2022-12-22T05:13:49.394Z,90
2022-12-22T05:14:49.078Z,90
2022-12-22T05:15:49.109Z,90
2022-12-22T05:16:49.156Z,90
2022-12-22T05:17:49.080Z,90
2022-12-22T05:18:49.082Z,90
2022-12-22T05:19:49.110Z,90
2022-12-22T05:20:49.068Z,90
2022-12-22T05:21:49.084Z,90
2022-12-22T05:22:49.082Z,90
2022-12-22T05:23:49.112Z,91
2022-12-22T05:24:49.125Z,91
2022-12-22T05:25:49.113Z,91
2022-12-22T05:26:49.115Z,91
2022-12-22T05:27:49.090Z,92
2022-12-22T05:28:49.079Z,92
2022-12-22T05:29:49.111Z,92
2022-12-22T05:30:49.158Z,92
2022-12-22T05:31:49.100Z,92
2022-12-22T05:32:49.092Z,92
2022-12-22T05:33:49.132Z,92
2022-12-22T05:34:49.080Z,92
2022-12-22T05:35:49.118Z,92
2022-12-22T05:36:49.143Z,92
2022-12-22T05:37:49.111Z,91
2022-12-22T05:38:49.103Z,91
2022-12-22T05:39:49.100Z,91
2022-12-22T05:40:49.098Z,91
2022-12-22T05:41:49.103Z,91
2022-12-22T05:42:49.172Z,91
2022-12-22T05:43:49.090Z,92
2022-12-22T05:44:49.094Z,92
2022-12-22T05:45:49.122Z,92
2022-12-22T05:46:49.073Z,92
2022-12-22T05:47:49.121Z,93
2022-12-22T05:48:49.118Z,93
2022-12-22T05:49:49.117Z,93
2022-12-22T05:50:49.279Z,93
2022-12-22T05:51:49.121Z,93
2022-12-22T05:52:49.109Z,93
2022-12-22T05:53:49.224Z,93
2022-12-22T05:54:49.136Z,93
2022-12-22T05:55:49.124Z,93
2022-12-22T05:56:49.096Z,93
2022-12-22T05:57:49.154Z,94
2022-12-22T05:58:49.144Z,94
2022-12-22T05:59:49.121Z,94
2022-12-22T06:00:49.115Z,94
2022-12-22T06:01:49.172Z,94
2022-12-22T06:02:49.208Z,94
2022-12-22T06:03:52.187Z,94
2022-12-22T06:04:49.219Z,94
2022-12-22T06:05:49.245Z,94
2022-12-22T06:06:49.202Z,94
2022-12-22T06:07:49.224Z,94
2022-12-22T06:08:49.221Z,94
2022-12-22T06:09:49.241Z,94
2022-12-22T06:10:49.215Z,95
2022-12-22T06:11:49.282Z,95
2022-12-22T06:12:49.220Z,95
2022-12-22T06:13:49.236Z,94
2022-12-22T06:14:49.210Z,94
2022-12-22T06:15:49.262Z,94
2022-12-22T06:16:49.207Z,94
2022-12-22T06:17:49.322Z,95
2022-12-22T06:18:49.223Z,95
2022-12-22T06:19:49.192Z,95
2022-12-22T06:20:49.215Z,95
2022-12-22T06:21:49.210Z,95
2022-12-22T06:22:49.220Z,95
2022-12-22T06:23:49.222Z,94
2022-12-22T06:24:49.211Z,94
2022-12-22T06:25:49.156Z,94
2022-12-22T06:26:49.268Z,94
2022-12-22T06:27:49.228Z,94
2022-12-22T06:28:49.216Z,94
2022-12-22T06:29:49.200Z,94
2022-12-22T06:30:49.358Z,94
2022-12-22T06:31:49.410Z,94
2022-12-22T06:32:49.238Z,94
2022-12-22T06:33:49.268Z,95
2022-12-22T06:34:49.244Z,95
2022-12-22T06:35:53.811Z,95
2022-12-22T06:36:49.207Z,95
2022-12-22T06:37:49.204Z,94
2022-12-22T06:38:49.233Z,94
2022-12-22T06:39:49.224Z,94
2022-12-22T06:40:49.211Z,93
2022-12-22T06:41:49.221Z,93
2022-12-22T06:42:49.229Z,93
2022-12-22T06:43:49.324Z,93
2022-12-22T06:44:49.242Z,93
2022-12-22T06:45:49.217Z,93
2022-12-22T06:46:49.337Z,93
2022-12-22T06:47:49.219Z,93
2022-12-22T06:48:49.244Z,93
2022-12-22T06:49:49.634Z,93
2022-12-22T06:50:49.480Z,93
2022-12-22T06:51:49.561Z,93
2022-12-22T06:52:49.646Z,93
2022-12-22T06:53:49.455Z,93
2022-12-22T06:54:49.542Z,93
2022-12-22T06:55:49.452Z,93
2022-12-22T06:56:49.390Z,93
2022-12-22T06:57:49.437Z,92
2022-12-22T06:58:49.436Z,92
2022-12-22T06:59:53.682Z,92
2022-12-22T07:00:49.467Z,92
2022-12-22T07:01:49.748Z,93
2022-12-22T07:02:49.772Z,93
2022-12-22T07:03:49.481Z,93
2022-12-22T07:04:49.451Z,92
2022-12-22T07:05:49.431Z,92
2022-12-22T07:06:49.420Z,92
2022-12-22T07:07:49.461Z,92
2022-12-22T07:08:49.428Z,91
2022-12-22T07:09:49.481Z,91
2022-12-22T07:10:49.446Z,91
2022-12-22T07:11:49.458Z,92
2022-12-22T07:12:49.403Z,92
2022-12-22T07:13:49.424Z,92
2022-12-22T07:14:49.372Z,92
2022-12-22T07:15:55.416Z,92
2022-12-22T07:16:49.496Z,92
2022-12-22T07:17:49.428Z,92
2022-12-22T07:18:49.444Z,91
2022-12-22T07:19:49.427Z,91
2022-12-22T07:20:49.447Z,91
2022-12-22T07:21:49.665Z,92
2022-12-22T07:22:49.468Z,92
2022-12-22T07:23:49.461Z,92
2022-12-22T07:24:49.457Z,92
2022-12-22T07:25:49.542Z,92
2022-12-22T07:26:49.425Z,92
2022-12-22T07:27:49.411Z,92
2022-12-22T07:28:49.462Z,92
2022-12-22T07:29:49.454Z,92
2022-12-22T07:30:49.483Z,92
2022-12-22T07:31:49.509Z,92
2022-12-22T07:32:49.414Z,92
2022-12-22T07:33:49.483Z,92
2022-12-22T07:34:49.514Z,92
2022-12-22T07:35:49.745Z,92
2022-12-22T07:36:49.463Z,92
2022-12-22T07:37:49.551Z,92
2022-12-22T07:38:49.465Z,93
2022-12-22T07:39:49.467Z,93
2022-12-22T07:40:51.938Z,93
2022-12-22T07:41:49.475Z,92
2022-12-22T07:42:49.592Z,92
2022-12-22T07:43:49.765Z,92
2022-12-22T07:44:49.484Z,92
2022-12-22T07:45:49.660Z,93
2022-12-22T07:46:49.720Z,93
2022-12-22T07:47:49.499Z,93
2022-12-22T07:48:49.517Z,92
2022-12-22T07:49:49.521Z,92
2022-12-22T07:50:49.625Z,92
2022-12-22T07:51:49.501Z,93
2022-12-22T07:52:49.498Z,93
2022-12-22T07:53:49.545Z,93
2022-12-22T07:54:49.620Z,93
2022-12-22T07:55:49.517Z,92
2022-12-22T07:56:49.507Z,92
2022-12-22T07:57:49.514Z,92
2022-12-22T07:58:49.551Z,92
2022-12-22T07:59:49.516Z,92
2022-12-22T08:00:49.530Z,92
2022-12-22T08:01:49.646Z,93
2022-12-22T08:02:49.711Z,93
2022-12-22T08:03:49.560Z,93
2022-12-22T08:04:49.593Z,93
2022-12-22T08:05:49.549Z,93
2022-12-22T08:06:49.574Z,93
2022-12-22T08:07:49.518Z,93
2022-12-22T08:08:49.539Z,92
2022-12-22T08:09:49.517Z,92
2022-12-22T08:10:49.518Z,92
2022-12-22T08:11:49.558Z,92
2022-12-22T08:12:49.561Z,92
2022-12-22T08:13:49.590Z,92
2022-12-22T08:14:49.632Z,92
2022-12-22T08:15:49.592Z,93
2022-12-22T08:16:49.741Z,93
2022-12-22T08:17:49.580Z,93
2022-12-22T08:18:49.593Z,92
2022-12-22T08:19:49.573Z,92
2022-12-22T08:20:49.598Z,92
2022-12-22T08:21:52.707Z,92
2022-12-22T08:22:49.608Z,92
2022-12-22T08:23:49.599Z,92
2022-12-22T08:24:49.595Z,92
2022-12-22T08:25:49.554Z,92
2022-12-22T08:26:49.599Z,92
2022-12-22T08:27:49.637Z,92
2022-12-22T08:28:49.784Z,91
2022-12-22T08:29:49.560Z,91
2022-12-22T08:30:49.556Z,91
2022-12-22T08:31:49.744Z,91
2022-12-22T08:32:49.658Z,90
2022-12-22T08:33:49.693Z,90
2022-12-22T08:34:49.597Z,90
2022-12-22T08:35:49.613Z,91
2022-12-22T08:36:49.606Z,91
2022-12-22T08:37:49.551Z,91
2022-12-22T08:38:49.637Z,91
2022-12-22T08:39:49.630Z,91
2022-12-22T08:40:49.633Z,91
2022-12-22T08:41:49.606Z,91
2022-12-22T08:42:49.687Z,91
2022-12-22T08:43:49.886Z,88
2022-12-22T08:44:49.709Z,88
2022-12-22T08:45:49.830Z,88
2022-12-22T08:46:49.705Z,89
2022-12-22T08:47:49.852Z,89
2022-12-22T08:48:49.773Z,89
2022-12-22T08:49:49.627Z,89
2022-12-22T08:50:49.608Z,89
2022-12-22T08:51:50.061Z,89
2022-12-22T08:52:49.754Z,89
2022-12-22T08:54:06.354Z,88
2022-12-22T08:54:49.775Z,88
2022-12-22T08:55:49.708Z,88
2022-12-22T08:56:49.733Z,87
2022-12-22T08:57:55.754Z,87
2022-12-22T08:58:49.992Z,87
2022-12-22T08:59:50.222Z,87
2022-12-22T09:00:49.894Z,86
2022-12-22T09:01:49.850Z,86
2022-12-22T09:02:49.923Z,86
2022-12-22T09:03:49.846Z,86
2022-12-22T09:04:49.755Z,87
2022-12-22T09:05:49.762Z,87
2022-12-22T09:06:49.795Z,87
2022-12-22T09:07:49.765Z,87
2022-12-22T09:08:49.798Z,87
2022-12-22T09:09:49.763Z,87
2022-12-22T09:10:49.801Z,87
2022-12-22T09:11:49.776Z,88
2022-12-22T09:12:49.795Z,88
2022-12-22T09:13:49.787Z,88
2022-12-22T09:14:49.804Z,88
2022-12-22T09:15:49.780Z,88
2022-12-22T09:16:49.838Z,88
2022-12-22T09:17:49.756Z,88
2022-12-22T09:18:49.795Z,89
2022-12-22T09:19:49.795Z,89
2022-12-22T09:20:49.783Z,89
2022-12-22T09:21:49.800Z,89
2022-12-22T09:22:49.776Z,89
2022-12-22T09:23:49.819Z,89
2022-12-22T09:24:49.777Z,89
2022-12-22T09:25:49.798Z,88
2022-12-22T09:26:49.847Z,88
2022-12-22T09:27:49.808Z,88
2022-12-22T09:28:50.616Z,88
2022-12-22T09:29:49.795Z,87
2022-12-22T09:30:49.795Z,87
2022-12-22T09:31:49.829Z,87
2022-12-22T09:32:49.767Z,87
2022-12-22T09:33:49.810Z,87
2022-12-22T09:34:49.785Z,87
2022-12-22T09:35:49.797Z,87
2022-12-22T09:36:49.796Z,89
2022-12-22T09:37:49.817Z,89
2022-12-22T09:38:49.827Z,89
2022-12-22T09:39:49.823Z,88
2022-12-22T09:40:49.831Z,88
2022-12-22T09:41:49.838Z,88
2022-12-22T09:42:49.833Z,89
2022-12-22T09:43:49.856Z,89
2022-12-22T09:44:49.811Z,89
2022-12-22T09:45:49.917Z,89
2022-12-22T09:46:49.860Z,89
2022-12-22T09:47:49.836Z,89
2022-12-22T09:48:49.842Z,89
2022-12-22T09:49:49.868Z,88
2022-12-22T09:50:49.818Z,88
2022-12-22T09:51:49.849Z,88
2022-12-22T09:52:49.833Z,88
2022-12-22T09:53:49.860Z,88
2022-12-22T09:54:49.795Z,88
2022-12-22T09:55:49.854Z,88
2022-12-22T09:56:49.855Z,88
2022-12-22T09:57:49.871Z,88
2022-12-22T09:58:49.869Z,88
2022-12-22T09:59:49.808Z,88
2022-12-22T10:00:49.864Z,88
2022-12-22T10:01:49.920Z,88
2022-12-22T10:02:49.887Z,88
2022-12-22T10:03:51.761Z,88
2022-12-22T10:04:49.832Z,88
2022-12-22T10:05:49.825Z,87
2022-12-22T10:06:49.881Z,87
2022-12-22T10:07:49.866Z,87
2022-12-22T10:08:49.864Z,87
2022-12-22T10:09:51.400Z,87
2022-12-22T10:10:49.847Z,87
2022-12-22T10:11:49.881Z,87
2022-12-22T10:12:49.849Z,87
2022-12-22T10:13:49.861Z,87
2022-12-22T10:14:49.867Z,87
2022-12-22T10:15:49.847Z,87
2022-12-22T10:16:49.917Z,87
2022-12-22T10:17:49.844Z,86
2022-12-22T10:18:50.101Z,86
2022-12-22T10:19:49.868Z,86
2022-12-22T10:20:49.845Z,86
2022-12-22T10:21:49.850Z,86
2022-12-22T10:22:49.848Z,86
2022-12-22T10:23:49.879Z,86
2022-12-22T10:24:49.838Z,86
2022-12-22T10:26:26.656Z,86
2022-12-22T10:26:49.844Z,86
2022-12-22T10:27:51.532Z,86
2022-12-22T10:28:49.880Z,86
2022-12-22T10:29:49.837Z,86
2022-12-22T10:30:49.879Z,86
2022-12-22T10:31:49.897Z,86
2022-12-22T10:32:49.847Z,86
2022-12-22T10:33:50.015Z,86
2022-12-22T10:34:49.965Z,86
2022-12-22T10:35:49.860Z,86
2022-12-22T10:36:49.862Z,86
2022-12-22T10:37:49.889Z,86
2022-12-22T10:38:49.894Z,87
2022-12-22T10:39:49.873Z,87
2022-12-22T10:40:49.941Z,87
2022-12-22T10:41:49.887Z,87
2022-12-22T10:42:49.854Z,88
2022-12-22T10:43:49.944Z,88
2022-12-22T10:44:49.929Z,88
2022-12-22T10:45:49.976Z,90
2022-12-22T10:46:49.967Z,90
2022-12-22T10:47:49.928Z,90
2022-12-22T10:48:49.941Z,90
2022-12-22T10:49:49.909Z,90
2022-12-22T10:50:49.963Z,89
2022-12-22T10:51:49.900Z,89
2022-12-22T10:52:49.944Z,89
2022-12-22T10:53:49.938Z,89
2022-12-22T10:54:49.909Z,90
2022-12-22T10:55:49.884Z,90
2022-12-22T10:56:49.895Z,90
2022-12-22T10:57:49.897Z,89
2022-12-22T10:58:50.047Z,89
2022-12-22T10:59:49.929Z,89
2022-12-22T11:00:49.928Z,89
2022-12-22T11:01:49.983Z,90
2022-12-22T11:02:50.059Z,90
2022-12-22T11:03:49.949Z,90
2022-12-22T11:04:49.946Z,90
2022-12-22T11:05:49.899Z,90
2022-12-22T11:06:49.933Z,90
2022-12-22T11:07:49.932Z,90
2022-12-22T11:08:51.718Z,90
2022-12-22T11:09:49.939Z,90
2022-12-22T11:10:49.948Z,90
2022-12-22T11:11:49.934Z,90
2022-12-22T11:12:49.956Z,89
2022-12-22T11:13:49.973Z,89
2022-12-22T11:14:49.968Z,89
2022-12-22T11:15:50.024Z,89
2022-12-22T11:16:50.068Z,89
2022-12-22T11:17:50.013Z,89
2022-12-22T11:18:50.040Z,89
2022-12-22T11:19:50.096Z,89
2022-12-22T11:20:49.996Z,91
2022-12-22T11:21:50.006Z,91
2022-12-22T11:22:50.028Z,91
2022-12-22T11:23:50.006Z,91
2022-12-22T11:24:50.014Z,91
2022-12-22T11:25:50.003Z,91
2022-12-22T11:26:50.007Z,91
2022-12-22T11:27:50.040Z,91
2022-12-22T11:28:50.056Z,91
2022-12-22T11:29:50.135Z,91
2022-12-22T11:30:50.217Z,91
2022-12-22T11:31:50.282Z,91
2022-12-22T11:32:50.041Z,91
2022-12-22T11:33:50.113Z,90
2022-12-22T11:34:50.063Z,90
2022-12-22T11:35:50.053Z,90
2022-12-22T11:36:50.113Z,90
2022-12-22T11:37:50.040Z,90
2022-12-22T11:38:50.073Z,90
2022-12-22T11:39:51.884Z,90
2022-12-22T11:40:50.041Z,90
2022-12-22T11:41:50.028Z,90
2022-12-22T11:42:50.073Z,90
2022-12-22T11:43:50.059Z,90
2022-12-22T11:44:50.052Z,90
2022-12-22T11:45:50.158Z,90
2022-12-22T11:46:50.148Z,90
2022-12-22T11:47:50.095Z,90
2022-12-22T11:48:50.124Z,90
2022-12-22T11:49:50.170Z,90
2022-12-22T11:50:58.018Z,90
2022-12-22T11:51:50.089Z,89
2022-12-22T11:52:50.105Z,89
2022-12-22T11:53:50.161Z,89
2022-12-22T11:54:50.110Z,89
2022-12-22T11:55:50.158Z,89
2022-12-22T11:56:50.120Z,89
2022-12-22T11:57:50.093Z,89
2022-12-22T11:58:50.138Z,89
2022-12-22T11:59:50.141Z,89
2022-12-22T12:01:13.930Z,89
2022-12-22T12:01:50.313Z,89
2022-12-22T12:02:50.210Z,90
2022-12-22T12:03:50.171Z,90
2022-12-22T12:04:50.120Z,90
2022-12-22T12:05:50.134Z,90
2022-12-22T12:06:50.123Z,90
2022-12-22T12:07:50.138Z,90
2022-12-22T12:08:50.127Z,90
2022-12-22T12:09:50.077Z,90
2022-12-22T12:10:50.142Z,90
2022-12-22T12:11:50.087Z,90
2022-12-22T12:12:50.124Z,90
2022-12-22T12:13:50.199Z,90
2022-12-22T12:14:50.178Z,90
2022-12-22T12:15:50.271Z,90
2022-12-22T12:16:50.136Z,90
2022-12-22T12:17:50.260Z,90
2022-12-22T12:18:50.186Z,90
2022-12-22T12:19:50.196Z,90
2022-12-22T12:20:50.197Z,90
2022-12-22T12:21:50.167Z,90
2022-12-22T12:22:50.168Z,90
2022-12-22T12:23:50.245Z,90
2022-12-22T12:24:50.142Z,90
2022-12-22T12:25:50.311Z,90
2022-12-22T12:26:50.143Z,90
2022-12-22T12:27:50.154Z,90
2022-12-22T12:28:50.166Z,90
2022-12-22T12:30:06.399Z,90
2022-12-22T12:30:50.304Z,90
2022-12-22T12:31:50.234Z,90
2022-12-22T12:32:50.194Z,91
2022-12-22T12:33:50.229Z,91
2022-12-22T12:34:50.153Z,91
2022-12-22T12:35:50.198Z,91
2022-12-22T12:36:50.170Z,91
2022-12-22T12:37:50.179Z,91
2022-12-22T12:39:07.205Z,91
2022-12-22T12:39:50.162Z,91
2022-12-22T12:40:50.160Z,90
2022-12-22T12:41:50.171Z,90
2022-12-22T12:42:50.317Z,90
2022-12-22T12:43:50.207Z,91
2022-12-22T12:44:50.192Z,91
2022-12-22T12:45:50.160Z,91
2022-12-22T12:46:50.286Z,91
2022-12-22T12:47:50.159Z,91
2022-12-22T12:48:50.409Z,91
2022-12-22T12:49:50.174Z,91
2022-12-22T12:50:50.191Z,91
2022-12-22T12:51:50.316Z,91
2022-12-22T12:52:50.285Z,91
2022-12-22T12:53:50.351Z,91
2022-12-22T12:54:50.267Z,90
2022-12-22T12:55:50.241Z,90
2022-12-22T12:56:50.245Z,90
2022-12-22T12:57:50.353Z,90
2022-12-22T12:58:50.449Z,91
2022-12-22T12:59:50.275Z,91
2022-12-22T13:00:55.432Z,91
2022-12-22T13:01:50.473Z,91
2022-12-22T13:02:50.452Z,91
2022-12-22T13:04:02.943Z,91
2022-12-22T13:04:50.280Z,91
2022-12-22T13:05:50.301Z,92
2022-12-22T13:06:51.445Z,92
2022-12-22T13:07:50.299Z,92
2022-12-22T13:08:50.294Z,92
2022-12-22T13:09:51.357Z,91
2022-12-22T13:10:50.380Z,91
2022-12-22T13:12:11.567Z,91
2022-12-22T13:12:50.345Z,91
2022-12-22T13:13:50.338Z,91
2022-12-22T13:14:50.271Z,91
2022-12-22T13:15:50.430Z,91
2022-12-22T13:16:50.340Z,91
2022-12-22T13:17:50.512Z,91
2022-12-22T13:18:51.486Z,91
2022-12-22T13:19:50.307Z,91
2022-12-22T13:20:50.337Z,92
2022-12-22T13:21:53.807Z,92
2022-12-22T13:22:50.432Z,92
2022-12-22T13:24:14.799Z,92
2022-12-22T13:24:50.328Z,92
2022-12-22T13:25:50.406Z,92
2022-12-22T13:26:50.388Z,92
2022-12-22T13:27:50.356Z,91
2022-12-22T13:28:50.337Z,91
2022-12-22T13:29:50.363Z,91
2022-12-22T13:30:50.360Z,91
2022-12-22T13:31:50.471Z,91
2022-12-22T13:32:50.379Z,91
2022-12-22T13:33:50.409Z,91
2022-12-22T13:35:28.844Z,91
2022-12-22T13:35:55.053Z,91
2022-12-22T13:36:50.400Z,91
2022-12-22T13:37:50.367Z,90
2022-12-22T13:38:50.383Z,90
2022-12-22T13:39:50.388Z,90
2022-12-22T13:40:50.364Z,90
2022-12-22T13:41:50.405Z,90
2022-12-22T13:42:50.550Z,90
2022-12-22T13:43:50.509Z,90
2022-12-22T13:44:50.376Z,90
2022-12-22T13:45:50.392Z,91
2022-12-22T13:46:50.381Z,91
2022-12-22T13:47:50.396Z,91
2022-12-22T13:48:50.406Z,91
2022-12-22T13:50:08.179Z,91
2022-12-22T13:50:50.358Z,91
2022-12-22T13:51:50.417Z,91
2022-12-22T13:52:50.412Z,90
2022-12-22T13:54:50.414Z,90
2022-12-22T13:55:50.505Z,90
2022-12-22T13:56:50.492Z,90
2022-12-22T13:57:54.843Z,90
2022-12-22T13:58:50.592Z,90
2022-12-22T13:59:50.519Z,90
2022-12-22T14:00:50.505Z,90
2022-12-22T14:01:50.672Z,90
2022-12-22T14:02:50.562Z,90
2022-12-22T14:03:59.865Z,90
2022-12-22T14:04:52.256Z,90
2022-12-22T14:05:50.529Z,90
2022-12-22T14:06:50.469Z,90
2022-12-22T14:07:50.584Z,90
2022-12-22T14:08:50.498Z,90
2022-12-22T14:09:50.455Z,91
2022-12-22T14:10:50.443Z,91
2022-12-22T14:11:52.253Z,91
2022-12-22T14:12:50.483Z,89
2022-12-22T14:13:50.501Z,89
2022-12-22T14:14:50.493Z,89
2022-12-22T14:15:50.788Z,89
2022-12-22T14:16:50.536Z,90